Time,TemperatureF,DewpointF,PressureIn,WindDirection,WindDirectionDegrees,WindSpeedMPH,WindSpeedGustMPH,Humidity,HourlyPrecipIn,Conditions,Clouds,dailyrainin,SolarRadiationWatts/m^2,SoftwareType,DateUTC
2013-04-23 00:02:00,0.0,-5.0,-100.00,SSE,162,0.0,2.0,77,0.00,,,0.20,0.000000,,2013-04-23 06:02:00,
2013-04-23 00:12:00,0.0,-5.0,-100.00,SSE,162,0.0,2.0,77,0.00,,,0.20,0.000000,,2013-04-23 06:12:00,
2013-04-23 00:21:00,0.0,-5.0,-100.00,SSE,162,0.0,2.0,77,0.00,,,0.20,0.000000,,2013-04-23 06:21:00,
2013-04-23 00:33:00,0.0,-5.0,-100.00,SSE,162,0.0,2.0,77,0.00,,,0.20,0.000000,,2013-04-23 06:33:00,
2013-04-23 01:02:00,-3.0,-9.0,-100.00,NNE,20,1.0,3.0,75,0.00,,,0.20,0.000000,,2013-04-23 07:02:00,
2013-04-23 01:11:00,-3.0,-9.0,-100.00,NNE,20,1.0,3.0,75,0.00,,,0.20,0.000000,,2013-04-23 07:11:00,
2013-04-23 01:21:00,-3.0,-9.0,-100.00,NNE,20,1.0,3.0,75,0.00,,,0.20,0.000000,,2013-04-23 07:21:00,
2013-04-23 01:32:00,-3.0,-9.0,-100.00,NNE,20,1.0,3.0,75,0.00,,,0.20,0.000000,,2013-04-23 07:32:00,
2013-04-23 02:02:00,-5.0,-12.0,-100.00,NNE,21,2.0,3.0,72,0.00,,,0.20,0.000000,,2013-04-23 08:02:00,
2013-04-23 02:11:00,-5.0,-12.0,-100.00,NNE,21,2.0,3.0,72,0.00,,,0.20,0.000000,,2013-04-23 08:11:00,
2013-04-23 02:21:00,-5.0,-12.0,-100.00,NNE,21,2.0,3.0,72,0.00,,,0.20,0.000000,,2013-04-23 08:21:00,
2013-04-23 02:32:00,-5.0,-12.0,-100.00,NNE,21,2.0,3.0,72,0.00,,,0.20,0.000000,,2013-04-23 08:32:00,
2013-04-23 03:02:00,-7.0,-13.0,-100.00,NNE,14,1.0,4.0,73,0.00,,,0.20,0.000000,,2013-04-23 09:02:00,
2013-04-23 03:11:00,-7.0,-13.0,-100.00,NNE,14,1.0,4.0,73,0.00,,,0.20,0.000000,,2013-04-23 09:11:00,
2013-04-23 03:21:00,-7.0,-13.0,-100.00,NNE,14,1.0,4.0,73,0.00,,,0.20,0.000000,,2013-04-23 09:21:00,
2013-04-23 03:33:00,-7.0,-13.0,-100.00,NNE,14,1.0,4.0,73,0.00,,,0.20,0.000000,,2013-04-23 09:33:00,
2013-04-23 04:02:00,-8.0,-15.0,-100.00,NNE,18,1.0,3.0,72,0.00,,,0.20,0.000000,,2013-04-23 10:02:00,
2013-04-23 04:13:00,-8.0,-15.0,-100.00,NNE,18,1.0,3.0,72,0.00,,,0.20,0.000000,,2013-04-23 10:13:00,
2013-04-23 04:22:00,-8.0,-15.0,-100.00,NNE,18,1.0,3.0,72,0.00,,,0.20,0.000000,,2013-04-23 10:22:00,
2013-04-23 04:33:00,-8.0,-15.0,-100.00,NNE,18,1.0,3.0,72,0.00,,,0.20,0.000000,,2013-04-23 10:33:00,
2013-04-23 05:03:00,-9.0,-16.0,-100.00,NNE,18,1.0,3.0,70,0.00,,,0.20,0.000000,,2013-04-23 11:03:00,
2013-04-23 05:12:00,-9.0,-16.0,-100.00,NNE,18,1.0,3.0,70,0.00,,,0.20,0.000000,,2013-04-23 11:12:00,
2013-04-23 05:21:00,-9.0,-16.0,-100.00,NNE,18,1.0,3.0,70,0.00,,,0.20,0.000000,,2013-04-23 11:21:00,
2013-04-23 05:32:00,-9.0,-16.0,-100.00,NNE,18,1.0,3.0,70,0.00,,,0.20,0.000000,,2013-04-23 11:32:00,
2013-04-23 06:02:00,-9.0,-15.0,-100.00,ESE,122,0.0,2.0,75,0.00,,,0.20,0.000000,,2013-04-23 12:02:00,
2013-04-23 06:12:00,-9.0,-15.0,-100.00,ESE,122,0.0,2.0,75,0.00,,,0.20,0.000000,,2013-04-23 12:12:00,
2013-04-23 06:22:00,-9.0,-15.0,-100.00,ESE,122,0.0,2.0,75,0.00,,,0.20,0.000000,,2013-04-23 12:22:00,
2013-04-23 06:32:00,-9.0,-15.0,-100.00,ESE,122,0.0,2.0,75,0.00,,,0.20,0.000000,,2013-04-23 12:32:00,
2013-04-23 07:01:00,-2.0,-7.0,-100.00,East,95,0.0,2.0,79,0.00,,,0.20,8.000000,,2013-04-23 13:01:00,
2013-04-23 07:11:00,-2.0,-7.0,-100.00,East,95,0.0,2.0,79,0.00,,,0.20,8.000000,,2013-04-23 13:11:00,
2013-04-23 07:21:00,-2.0,-7.0,-100.00,East,95,0.0,2.0,79,0.00,,,0.20,8.000000,,2013-04-23 13:21:00,
2013-04-23 07:32:00,-2.0,-7.0,-100.00,East,95,0.0,2.0,79,0.00,,,0.20,8.000000,,2013-04-23 13:32:00,
2013-04-23 08:02:00,3.0,-3.0,-100.00,NNW,331,0.0,2.0,77,0.00,,,0.20,33.000000,,2013-04-23 14:02:00,
2013-04-23 08:11:00,3.0,-3.0,-100.00,NNW,331,0.0,2.0,77,0.00,,,0.20,33.000000,,2013-04-23 14:11:00,
2013-04-23 08:22:00,3.0,-3.0,-100.00,NNW,331,0.0,2.0,77,0.00,,,0.20,33.000000,,2013-04-23 14:22:00,
2013-04-23 08:32:00,3.0,-3.0,-100.00,NNW,331,0.0,2.0,77,0.00,,,0.20,33.000000,,2013-04-23 14:32:00,
2013-04-23 09:01:00,16.0,8.0,-100.00,NW,317,3.0,6.0,70,0.00,,,0.20,153.000000,,2013-04-23 15:01:00,
2013-04-23 09:12:00,16.0,8.0,-100.00,NW,317,3.0,6.0,70,0.00,,,0.20,153.000000,,2013-04-23 15:12:00,
2013-04-23 09:21:00,16.0,8.0,-100.00,NW,317,3.0,6.0,70,0.00,,,0.20,153.000000,,2013-04-23 15:21:00,
2013-04-23 09:32:00,16.0,8.0,-100.00,NW,317,3.0,6.0,70,0.00,,,0.20,153.000000,,2013-04-23 15:32:00,
2013-04-23 10:03:00,21.0,9.0,-100.00,WNW,287,4.0,8.0,58,0.00,,,0.20,616.000000,,2013-04-23 16:03:00,
2013-04-23 10:12:00,21.0,9.0,-100.00,WNW,287,4.0,8.0,58,0.00,,,0.20,616.000000,,2013-04-23 16:12:00,
2013-04-23 10:23:00,21.0,9.0,-100.00,WNW,287,4.0,8.0,58,0.00,,,0.20,616.000000,,2013-04-23 16:23:00,
2013-04-23 10:34:00,21.0,9.0,-100.00,WNW,287,4.0,8.0,58,0.00,,,0.20,616.000000,,2013-04-23 16:34:00,
2013-04-23 11:02:00,27.0,10.0,-100.00,West,268,3.0,8.0,49,0.01,,,0.21,796.000000,,2013-04-23 17:02:00,
2013-04-23 11:12:00,27.0,10.0,-100.00,West,268,3.0,8.0,49,0.01,,,0.21,796.000000,,2013-04-23 17:12:00,
2013-04-23 11:22:00,27.0,10.0,-100.00,West,268,3.0,8.0,49,0.01,,,0.21,796.000000,,2013-04-23 17:22:00,
2013-04-23 11:32:00,27.0,10.0,-100.00,West,268,3.0,8.0,49,0.01,,,0.21,796.000000,,2013-04-23 17:32:00,
2013-04-23 12:02:00,27.0,9.0,-100.00,SW,221,5.0,9.0,46,0.02,,,0.23,925.000000,,2013-04-23 18:02:00,
2013-04-23 12:12:00,27.0,9.0,-100.00,SW,221,5.0,9.0,46,0.02,,,0.23,925.000000,,2013-04-23 18:12:00,
2013-04-23 12:22:00,27.0,9.0,-100.00,SW,221,5.0,9.0,46,0.02,,,0.23,925.000000,,2013-04-23 18:22:00,
2013-04-23 12:32:00,27.0,9.0,-100.00,SW,221,5.0,9.0,46,0.02,,,0.23,925.000000,,2013-04-23 18:32:00,
2013-04-23 13:02:00,27.0,11.0,-100.00,SSW,206,5.0,9.0,50,0.00,,,0.23,995.000000,,2013-04-23 19:02:00,
2013-04-23 13:11:00,27.0,11.0,-100.00,SSW,206,5.0,9.0,50,0.00,,,0.23,995.000000,,2013-04-23 19:11:00,
2013-04-23 13:22:00,27.0,11.0,-100.00,SSW,206,5.0,9.0,50,0.00,,,0.23,995.000000,,2013-04-23 19:22:00,
2013-04-23 13:32:00,27.0,11.0,-100.00,SSW,206,5.0,9.0,50,0.00,,,0.23,995.000000,,2013-04-23 19:32:00,
2013-04-23 14:02:00,29.0,11.0,-100.00,SW,230,6.0,10.0,47,0.00,,,0.14,971.000000,,2013-04-23 20:02:00,
2013-04-23 14:11:00,29.0,11.0,-100.00,SW,230,6.0,10.0,47,0.00,,,0.14,971.000000,,2013-04-23 20:11:00,
2013-04-23 14:22:00,29.0,11.0,-100.00,SW,230,6.0,10.0,47,0.00,,,0.14,971.000000,,2013-04-23 20:22:00,
2013-04-23 14:32:00,29.0,11.0,-100.00,SW,230,6.0,10.0,47,0.00,,,0.14,971.000000,,2013-04-23 20:32:00,
2013-04-23 15:02:00,29.0,11.0,-100.00,West,280,7.0,16.0,46,0.00,,,0.07,958.000000,,2013-04-23 21:02:00,
2013-04-23 15:12:00,29.0,11.0,-100.00,West,280,7.0,16.0,46,0.00,,,0.07,958.000000,,2013-04-23 21:12:00,
2013-04-23 15:21:00,29.0,11.0,-100.00,West,280,7.0,16.0,46,0.00,,,0.07,958.000000,,2013-04-23 21:21:00,
2013-04-23 15:33:00,29.0,11.0,-100.00,West,280,7.0,16.0,46,0.00,,,0.07,958.000000,,2013-04-23 21:33:00,
2013-04-23 16:03:00,28.0,11.0,-100.00,West,264,5.0,12.0,48,0.00,,,0.03,847.000000,,2013-04-23 22:03:00,
2013-04-23 16:12:00,28.0,11.0,-100.00,West,264,5.0,12.0,48,0.00,,,0.03,847.000000,,2013-04-23 22:12:00,
2013-04-23 16:22:00,28.0,11.0,-100.00,West,264,5.0,12.0,48,0.00,,,0.03,847.000000,,2013-04-23 22:22:00,
2013-04-23 16:33:00,28.0,11.0,-100.00,West,264,5.0,12.0,48,0.00,,,0.03,847.000000,,2013-04-23 22:33:00,
2013-04-23 17:03:00,27.0,5.0,-100.00,WNW,283,6.0,13.0,39,0.00,,,0.03,162.000000,,2013-04-23 23:03:00,
2013-04-23 17:12:00,27.0,5.0,-100.00,WNW,283,6.0,13.0,39,0.00,,,0.03,162.000000,,2013-04-23 23:12:00,
2013-04-23 17:22:00,27.0,5.0,-100.00,WNW,283,6.0,13.0,39,0.00,,,0.03,162.000000,,2013-04-23 23:22:00,
2013-04-23 17:32:00,27.0,5.0,-100.00,WNW,283,6.0,13.0,39,0.00,,,0.03,162.000000,,2013-04-23 23:32:00,
2013-04-23 18:01:00,27.0,4.0,-100.00,WNW,292,6.0,14.0,37,0.00,,,0.03,81.000000,,2013-04-24 00:01:00,
2013-04-23 18:11:00,27.0,4.0,-100.00,WNW,292,6.0,14.0,37,0.00,,,0.03,81.000000,,2013-04-24 00:11:00,
2013-04-23 18:22:00,27.0,4.0,-100.00,WNW,292,6.0,14.0,37,0.00,,,0.03,81.000000,,2013-04-24 00:22:00,
2013-04-23 18:32:00,27.0,4.0,-100.00,WNW,292,6.0,14.0,37,0.00,,,0.03,81.000000,,2013-04-24 00:32:00,
2013-04-23 19:02:00,26.0,3.0,-100.00,WNW,283,5.0,11.0,36,0.00,,,0.03,157.000000,,2013-04-24 01:02:00,
2013-04-23 19:11:00,26.0,3.0,-100.00,WNW,283,5.0,11.0,36,0.00,,,0.03,157.000000,,2013-04-24 01:11:00,
2013-04-23 19:21:00,26.0,3.0,-100.00,WNW,283,5.0,11.0,36,0.00,,,0.03,157.000000,,2013-04-24 01:21:00,
2013-04-23 19:32:00,26.0,3.0,-100.00,WNW,283,5.0,11.0,36,0.00,,,0.03,157.000000,,2013-04-24 01:32:00,
2013-04-23 19:36:00,21.0,4.0,-100.00,WNW,284,4.0,12.0,48,0.00,,,0.03,73.000000,,2013-04-24 01:36:00,
2013-04-23 20:02:00,21.0,4.0,-100.00,WNW,284,4.0,12.0,48,0.00,,,0.03,73.000000,,2013-04-24 02:02:00,
2013-04-23 21:09:00,17.0,6.0,-100.00,South,190,0.0,5.0,61,0.00,,,0.03,3.000000,,2013-04-24 03:09:00,
2013-04-23 21:17:00,17.0,6.0,-100.00,South,190,0.0,5.0,61,0.00,,,0.03,3.000000,,2013-04-24 03:17:00,
2013-04-23 22:03:00,14.0,5.0,-100.00,NNW,344,0.0,3.0,66,0.00,,,0.03,0.000000,,2013-04-24 04:03:00,
2013-04-23 22:12:00,14.0,5.0,-100.00,NNW,344,0.0,3.0,66,0.00,,,0.03,0.000000,,2013-04-24 04:12:00,
2013-04-23 22:23:00,14.0,5.0,-100.00,NNW,344,0.0,3.0,66,0.00,,,0.03,0.000000,,2013-04-24 04:23:00,
2013-04-23 22:33:00,14.0,5.0,-100.00,NNW,344,0.0,3.0,66,0.00,,,0.03,0.000000,,2013-04-24 04:33:00,
2013-04-23 23:02:00,10.0,4.0,-100.00,NNE,25,0.0,4.0,76,0.00,,,0.03,0.000000,,2013-04-24 05:02:00,
2013-04-23 23:12:00,10.0,4.0,-100.00,NNE,25,0.0,4.0,76,0.00,,,0.03,0.000000,,2013-04-24 05:12:00,
2013-04-23 23:22:00,10.0,4.0,-100.00,NNE,25,0.0,4.0,76,0.00,,,0.03,0.000000,,2013-04-24 05:22:00,
2013-04-23 23:32:00,10.0,4.0,-100.00,NNE,25,0.0,4.0,76,0.00,,,0.03,0.000000,,2013-04-24 05:32:00,